Terminal Aerodrome Forecast
Issued by NWS

Home | Current Version | Previous Version | Graphics & Text | Print | Product List | Glossary On
Versions: 1 2 3 4 5 6 7 8 9 10 11 12 13 14 15 16 17 18
000
FTUS43 KMPX 210500
TAFRNH
TAF
KRNH 210539Z 2106/2206 16011KT 6SM BR OVC012
     FM210800 15010KT 5SM BR OVC008
     FM211700 14012KT 6SM -RA BR OVC009
     FM212000 14013KT 6SM BR OVC012
     FM220200 14013KT 5SM -RA BR OVC007=

USA.gov is the U.S. government's official web portal to all federal, state and local government web resources and services.